createdAt,value
2023-04-09T00:01:19.210Z,11.86
2023-04-09T00:03:46.993Z,11.89
2023-04-09T00:06:14.475Z,11.77
2023-04-09T00:08:42.143Z,11.87
2023-04-09T00:11:09.596Z,11.99
2023-04-09T00:13:39.531Z,11.87
2023-04-09T00:16:09.065Z,11.72
2023-04-09T00:18:36.620Z,11.91
2023-04-09T00:21:04.156Z,12.00
2023-04-09T00:23:31.519Z,12.05
2023-04-09T00:25:58.843Z,12.01
2023-04-09T00:28:26.607Z,11.82
2023-04-09T00:30:54.128Z,11.78
2023-04-09T00:33:21.497Z,11.73
2023-04-09T00:35:49.099Z,11.62
2023-04-09T00:38:16.558Z,11.63
2023-04-09T00:40:44.432Z,11.67
2023-04-09T00:43:12.202Z,11.68
2023-04-09T00:45:39.753Z,11.58
2023-04-09T00:48:07.482Z,11.52
2023-04-09T00:50:35.047Z,11.46
2023-04-09T00:53:02.626Z,11.50
2023-04-09T00:55:31.010Z,11.36
2023-04-09T00:57:58.535Z,11.36
2023-04-09T01:00:27.820Z,11.30
2023-04-09T01:02:58.150Z,11.33
2023-04-09T01:05:37.416Z,11.27
2023-04-09T01:08:19.381Z,11.30
2023-04-09T01:10:58.394Z,11.18
2023-04-09T01:13:35.714Z,11.19
2023-04-09T01:16:03.403Z,11.11
2023-04-09T01:18:52.832Z,11.13
2023-04-09T01:21:23.595Z,11.04
2023-04-09T01:24:13.007Z,11.04
2023-04-09T01:26:49.399Z,10.96
2023-04-09T01:29:20.107Z,10.94
2023-04-09T01:31:49.460Z,10.96
2023-04-09T01:34:18.071Z,10.93
2023-04-09T01:36:56.911Z,10.96
2023-04-09T01:39:24.561Z,10.89
2023-04-09T01:41:53.498Z,10.81
2023-04-09T01:44:21.651Z,10.64
2023-04-09T01:46:50.227Z,10.79
2023-04-09T01:49:18.881Z,10.64
2023-04-09T01:51:47.511Z,10.79
2023-04-09T01:54:16.712Z,10.79
2023-04-09T01:56:48.566Z,10.73
2023-04-09T01:59:16.359Z,10.78
2023-04-09T02:01:58.579Z,10.67
2023-04-09T02:04:48.439Z,10.71
2023-04-09T02:07:42.845Z,10.75
2023-04-09T02:10:12.183Z,10.55
2023-04-09T02:12:45.497Z,10.54
2023-04-09T02:15:13.800Z,10.51
2023-04-09T02:17:41.465Z,10.63
2023-04-09T02:20:09.560Z,10.53
2023-04-09T02:22:36.954Z,10.56
2023-04-09T02:25:04.999Z,10.53
2023-04-09T02:27:32.484Z,10.68
2023-04-09T02:30:00.022Z,10.64
2023-04-09T02:32:27.469Z,10.50
2023-04-09T02:34:55.050Z,10.61
2023-04-09T02:37:22.603Z,10.54
2023-04-09T02:39:50.400Z,10.49
2023-04-09T02:42:18.365Z,10.53
2023-04-09T02:44:45.817Z,10.44
2023-04-09T02:47:14.480Z,10.34
2023-04-09T02:49:42.342Z,10.36
2023-04-09T02:52:11.105Z,10.16
2023-04-09T02:54:38.630Z,10.19
2023-04-09T02:57:06.088Z,10.16
2023-04-09T02:59:34.476Z,10.07
2023-04-09T03:02:02.088Z,10.10
2023-04-09T03:04:29.786Z,10.11
2023-04-09T03:06:57.473Z,10.04
2023-04-09T03:09:25.000Z,10.08
2023-04-09T03:11:52.412Z,10.10
2023-04-09T03:14:19.881Z,9.98
2023-04-09T03:16:47.121Z,10.01
2023-04-09T03:19:14.500Z,10.06
2023-04-09T03:21:42.901Z,9.95
2023-04-09T03:24:11.026Z,9.99
2023-04-09T03:26:38.637Z,9.99
2023-04-09T03:29:07.582Z,9.89
2023-04-09T03:31:35.257Z,9.93
2023-04-09T03:34:02.821Z,9.85
2023-04-09T03:36:32.894Z,9.84
2023-04-09T03:39:04.775Z,9.80
2023-04-09T03:41:36.038Z,9.71
2023-04-09T03:44:06.765Z,9.66
2023-04-09T03:46:44.694Z,9.67
2023-04-09T03:49:16.105Z,9.63
2023-04-09T03:51:45.119Z,9.55
2023-04-09T03:54:13.504Z,9.52
2023-04-09T03:56:42.077Z,9.54
2023-04-09T03:59:12.770Z,9.47
2023-04-09T04:01:43.673Z,9.41
2023-04-09T04:04:12.025Z,9.39
2023-04-09T04:06:59.200Z,9.33
2023-04-09T04:09:49.827Z,9.38
2023-04-09T04:12:19.569Z,9.38
2023-04-09T04:15:09.571Z,9.27
2023-04-09T04:17:50.878Z,9.32
2023-04-09T04:20:36.449Z,9.27
2023-04-09T04:23:08.892Z,9.20
2023-04-09T04:25:42.335Z,9.23
2023-04-09T04:28:12.765Z,9.19
2023-04-09T04:30:43.227Z,9.06
2023-04-09T04:33:11.688Z,9.01
2023-04-09T04:35:45.452Z,9.02
2023-04-09T04:38:29.480Z,8.97
2023-04-09T04:40:59.619Z,8.93
2023-04-09T04:43:27.550Z,8.90
2023-04-09T04:45:59.373Z,8.86
2023-04-09T04:48:31.049Z,8.71
2023-04-09T04:51:01.438Z,8.74
2023-04-09T04:53:36.515Z,8.80
2023-04-09T04:56:14.770Z,8.78
2023-04-09T04:58:53.715Z,8.85
2023-04-09T05:01:22.356Z,8.84
2023-04-09T05:03:50.303Z,8.86
2023-04-09T05:06:31.666Z,8.84
2023-04-09T05:09:01.665Z,8.84
2023-04-09T05:11:37.159Z,8.84
2023-04-09T05:14:08.154Z,8.79
2023-04-09T05:16:36.294Z,8.77
2023-04-09T05:19:06.401Z,8.76
2023-04-09T05:21:33.914Z,8.69
2023-04-09T05:24:02.791Z,8.67
2023-04-09T05:26:32.939Z,8.68
2023-04-09T05:29:00.624Z,8.67
2023-04-09T05:31:28.040Z,8.63
2023-04-09T05:34:08.032Z,8.60
2023-04-09T05:36:42.594Z,8.59
2023-04-09T05:39:11.294Z,8.59
2023-04-09T05:41:38.912Z,8.56
2023-04-09T05:44:39.251Z,8.59
2023-04-09T05:47:12.054Z,8.71
2023-04-09T05:49:48.693Z,8.82
2023-04-09T05:52:18.148Z,8.84
2023-04-09T05:54:45.570Z,8.88
2023-04-09T05:57:17.431Z,8.92
2023-04-09T05:59:52.265Z,8.88
2023-04-09T06:02:20.086Z,8.84
2023-04-09T06:04:47.924Z,8.91
2023-04-09T06:07:16.851Z,9.21
2023-04-09T06:09:45.207Z,9.46
2023-04-09T06:12:13.509Z,9.49
2023-04-09T06:14:40.901Z,9.38
2023-04-09T06:17:08.534Z,9.25
2023-04-09T06:19:35.894Z,9.00
2023-04-09T06:22:03.300Z,9.06
2023-04-09T06:24:31.560Z,9.01
2023-04-09T06:26:59.056Z,9.03
2023-04-09T06:29:26.505Z,9.11
2023-04-09T06:31:54.252Z,9.24
2023-04-09T06:34:21.750Z,9.47
2023-04-09T06:36:49.295Z,9.63
2023-04-09T06:39:16.551Z,9.69
2023-04-09T06:41:43.888Z,9.89
2023-04-09T06:44:24.512Z,10.57
2023-04-09T06:46:52.338Z,11.19
2023-04-09T06:49:19.738Z,11.78
2023-04-09T06:51:47.028Z,12.34
2023-04-09T06:54:14.446Z,12.90
2023-04-09T06:56:42.163Z,13.25
2023-04-09T06:59:09.886Z,13.28
2023-04-09T07:01:38.328Z,13.35
2023-04-09T07:04:06.241Z,13.38
2023-04-09T07:06:33.856Z,13.78
2023-04-09T07:09:01.461Z,13.97
2023-04-09T07:11:29.088Z,13.95
2023-04-09T07:13:57.000Z,14.55
2023-04-09T07:16:24.602Z,14.24
2023-04-09T07:18:52.017Z,14.66
2023-04-09T07:21:19.575Z,15.31
2023-04-09T07:23:47.970Z,15.69
2023-04-09T07:26:15.492Z,16.17
2023-04-09T07:28:46.898Z,16.66
2023-04-09T07:31:14.569Z,16.84
2023-04-09T07:33:41.993Z,16.95
2023-04-09T07:36:09.478Z,17.09
2023-04-09T07:38:36.856Z,17.39
2023-04-09T07:41:04.386Z,17.00
2023-04-09T07:43:32.479Z,17.26
2023-04-09T07:46:00.266Z,17.46
2023-04-09T07:48:28.253Z,17.64
2023-04-09T07:50:56.021Z,18.02
2023-04-09T07:53:23.402Z,17.67
2023-04-09T07:55:51.931Z,17.50
2023-04-09T07:58:19.360Z,17.53
2023-04-09T08:00:48.665Z,17.78
2023-04-09T08:03:16.338Z,17.03
2023-04-09T08:05:44.315Z,16.94
2023-04-09T08:08:12.212Z,16.96
2023-04-09T08:10:39.776Z,16.76
2023-04-09T08:13:08.732Z,17.00
2023-04-09T08:15:38.600Z,17.06
2023-04-09T08:18:07.547Z,17.25
2023-04-09T08:20:35.277Z,17.45
2023-04-09T08:23:02.749Z,17.97
2023-04-09T08:25:30.488Z,17.94
2023-04-09T08:27:58.317Z,17.60
2023-04-09T08:30:25.784Z,17.68
2023-04-09T08:32:53.794Z,17.81
2023-04-09T08:35:21.413Z,18.10
2023-04-09T08:37:49.296Z,18.34
2023-04-09T08:40:16.937Z,18.34
2023-04-09T08:42:48.196Z,18.46
2023-04-09T08:45:15.684Z,18.48
2023-04-09T08:47:44.173Z,18.64
2023-04-09T08:50:11.853Z,18.85
2023-04-09T08:52:40.407Z,19.01
2023-04-09T08:55:08.621Z,18.90
2023-04-09T08:57:39.947Z,19.00
2023-04-09T09:00:08.661Z,19.15
2023-04-09T09:02:36.414Z,19.12
2023-04-09T09:05:04.117Z,19.07
2023-04-09T09:07:31.970Z,19.05
2023-04-09T09:10:03.564Z,18.82
2023-04-09T09:12:42.036Z,18.78
2023-04-09T09:15:26.988Z,18.46
2023-04-09T09:17:59.728Z,18.64
2023-04-09T09:20:27.917Z,18.66
2023-04-09T09:22:57.008Z,18.87
2023-04-09T09:25:26.240Z,18.38
2023-04-09T09:27:54.755Z,18.00
2023-04-09T09:30:24.295Z,18.01
2023-04-09T09:32:53.949Z,18.49
2023-04-09T09:35:21.533Z,18.67
2023-04-09T09:38:02.202Z,19.01
2023-04-09T09:40:29.979Z,19.16
2023-04-09T09:42:58.161Z,19.33
2023-04-09T09:45:26.265Z,19.42
2023-04-09T09:47:57.065Z,19.66
2023-04-09T09:50:28.669Z,19.58
2023-04-09T09:53:03.623Z,19.70
2023-04-09T09:55:38.248Z,20.01
2023-04-09T09:58:16.642Z,20.24
2023-04-09T10:00:46.648Z,20.27
2023-04-09T10:03:26.252Z,20.19
2023-04-09T10:05:54.190Z,20.27
2023-04-09T10:08:23.002Z,20.39
2023-04-09T10:10:52.311Z,20.35
2023-04-09T10:13:25.665Z,20.33
2023-04-09T10:15:53.636Z,20.43
2023-04-09T10:18:21.458Z,20.24
2023-04-09T10:20:58.955Z,20.26
2023-04-09T10:23:49.667Z,19.97
2023-04-09T10:26:19.444Z,20.00
2023-04-09T10:28:47.098Z,20.11
2023-04-09T10:31:14.786Z,20.21
2023-04-09T10:33:43.822Z,20.28
2023-04-09T10:36:12.779Z,20.38
2023-04-09T10:38:42.371Z,20.37
2023-04-09T10:41:25.394Z,20.25
2023-04-09T10:43:52.953Z,20.11
2023-04-09T10:46:36.957Z,20.14
2023-04-09T10:49:16.766Z,20.16
2023-04-09T10:52:15.984Z,19.68
2023-04-09T10:54:48.327Z,19.58
2023-04-09T10:57:22.245Z,19.45
2023-04-09T10:59:54.798Z,19.44
2023-04-09T11:02:40.635Z,19.49
2023-04-09T11:05:32.819Z,19.75
2023-04-09T11:08:04.411Z,20.18
2023-04-09T11:10:36.093Z,20.21
2023-04-09T11:13:03.987Z,19.98
2023-04-09T11:15:34.522Z,19.84
2023-04-09T11:18:02.476Z,19.93
2023-04-09T11:20:31.338Z,20.00
2023-04-09T11:22:59.689Z,20.16
2023-04-09T11:25:30.410Z,20.22
2023-04-09T11:27:58.816Z,20.22
2023-04-09T11:30:26.451Z,20.34
2023-04-09T11:32:53.953Z,20.42
2023-04-09T11:35:22.748Z,20.29
2023-04-09T11:37:52.426Z,20.18
2023-04-09T11:40:29.202Z,19.62
2023-04-09T11:42:57.432Z,19.72
2023-04-09T11:45:27.286Z,19.83
2023-04-09T11:47:55.557Z,19.75
2023-04-09T11:50:23.234Z,19.62
2023-04-09T11:52:50.989Z,19.70
2023-04-09T11:55:26.209Z,19.65
2023-04-09T11:57:57.589Z,19.71
2023-04-09T12:00:25.579Z,19.75
2023-04-09T12:03:04.035Z,19.62
2023-04-09T12:05:34.128Z,19.63
2023-04-09T12:08:08.168Z,19.44
2023-04-09T12:10:38.021Z,19.32
2023-04-09T12:13:13.718Z,19.49
2023-04-09T12:15:45.653Z,19.67
2023-04-09T12:18:14.041Z,19.72
2023-04-09T12:20:46.710Z,19.75
2023-04-09T12:23:14.487Z,19.70
2023-04-09T12:25:45.752Z,19.84
2023-04-09T12:28:15.983Z,19.95
2023-04-09T12:30:43.957Z,20.04
2023-04-09T12:33:11.567Z,19.99
2023-04-09T12:35:39.345Z,19.82
2023-04-09T12:38:07.229Z,19.58
2023-04-09T12:40:35.872Z,19.68
2023-04-09T12:43:03.449Z,19.77
2023-04-09T12:45:31.917Z,19.61
2023-04-09T12:47:59.395Z,19.48
2023-04-09T12:50:27.061Z,19.36
2023-04-09T12:52:54.550Z,19.28
2023-04-09T12:55:22.683Z,19.39
2023-04-09T12:57:51.420Z,19.42
2023-04-09T13:00:19.077Z,19.37
2023-04-09T13:02:46.659Z,19.55
2023-04-09T13:05:14.705Z,19.65
2023-04-09T13:07:43.604Z,19.74
2023-04-09T13:10:11.415Z,19.78
2023-04-09T13:12:39.218Z,19.77
2023-04-09T13:15:07.478Z,19.62
2023-04-09T13:17:34.948Z,19.55
2023-04-09T13:20:02.745Z,19.28
2023-04-09T13:22:30.456Z,19.36
2023-04-09T13:24:58.081Z,19.44
2023-04-09T13:27:25.638Z,19.45
2023-04-09T13:29:53.201Z,19.43
2023-04-09T13:32:24.444Z,19.45
2023-04-09T13:34:54.226Z,19.45
2023-04-09T13:37:21.669Z,19.56
2023-04-09T13:39:50.127Z,19.78
2023-04-09T13:42:18.246Z,19.80
2023-04-09T13:44:45.944Z,19.70
2023-04-09T13:47:14.757Z,19.72
2023-04-09T13:49:43.096Z,19.65
2023-04-09T13:52:11.109Z,19.47
2023-04-09T13:54:38.819Z,19.41
2023-04-09T13:57:06.598Z,19.54
2023-04-09T13:59:34.128Z,19.65
2023-04-09T14:02:01.715Z,19.72
2023-04-09T14:04:29.418Z,19.78
2023-04-09T14:06:57.964Z,19.76
2023-04-09T14:09:25.450Z,19.78
2023-04-09T14:11:54.839Z,19.69
2023-04-09T14:14:22.444Z,19.65
2023-04-09T14:16:50.617Z,19.65
2023-04-09T14:19:18.043Z,19.64
2023-04-09T14:21:45.552Z,19.65
2023-04-09T14:24:13.174Z,19.72
2023-04-09T14:26:41.011Z,19.73
2023-04-09T14:29:08.474Z,19.81
2023-04-09T14:31:35.963Z,19.81
2023-04-09T14:34:03.593Z,19.75
2023-04-09T14:36:32.347Z,19.80
2023-04-09T14:39:00.320Z,19.72
2023-04-09T14:41:28.176Z,19.78
2023-04-09T14:43:55.732Z,19.75
2023-04-09T14:46:23.135Z,19.57
2023-04-09T14:48:51.042Z,19.62
2023-04-09T14:51:18.630Z,19.61
2023-04-09T14:53:46.513Z,19.71
2023-04-09T14:56:14.044Z,19.79
2023-04-09T14:58:41.554Z,19.88
2023-04-09T15:01:09.121Z,19.94
2023-04-09T15:03:36.834Z,19.94
2023-04-09T15:06:04.858Z,19.96
2023-04-09T15:08:32.305Z,19.93
2023-04-09T15:10:59.731Z,19.96
2023-04-09T15:13:28.174Z,19.96
2023-04-09T15:15:58.369Z,20.04
2023-04-09T15:18:26.067Z,20.03
2023-04-09T15:20:53.504Z,20.01
2023-04-09T15:23:21.679Z,19.94
2023-04-09T15:25:49.104Z,19.95
2023-04-09T15:28:16.908Z,19.94
2023-04-09T15:30:44.571Z,19.91
2023-04-09T15:33:13.193Z,19.91
2023-04-09T15:35:40.891Z,19.88
2023-04-09T15:38:08.467Z,19.81
2023-04-09T15:40:35.864Z,19.76
2023-04-09T15:43:03.367Z,19.85
2023-04-09T15:45:30.818Z,19.85
2023-04-09T15:47:58.430Z,19.85
2023-04-09T15:50:26.214Z,19.84
2023-04-09T15:52:55.154Z,19.89
2023-04-09T15:55:23.579Z,19.87
2023-04-09T15:57:51.139Z,19.86
2023-04-09T16:00:18.641Z,19.81
2023-04-09T16:02:46.383Z,19.77
2023-04-09T16:05:13.989Z,19.67
2023-04-09T16:07:41.683Z,19.61
2023-04-09T16:10:09.672Z,19.55
2023-04-09T16:12:37.216Z,19.53
2023-04-09T16:15:05.211Z,19.48
2023-04-09T16:17:36.535Z,19.53
2023-04-09T16:20:08.856Z,19.57
2023-04-09T16:22:36.410Z,19.54
2023-04-09T16:25:04.020Z,19.51
2023-04-09T16:27:31.413Z,19.54
2023-04-09T16:29:59.000Z,19.49
2023-04-09T16:32:26.509Z,19.55
2023-04-09T16:34:54.113Z,19.53
2023-04-09T16:37:21.613Z,19.52
2023-04-09T16:39:49.116Z,19.57
2023-04-09T16:42:16.762Z,19.61
2023-04-09T16:44:44.364Z,19.56
2023-04-09T16:47:11.955Z,19.47
2023-04-09T16:49:39.455Z,19.43
2023-04-09T16:52:06.900Z,19.32
2023-04-09T16:54:34.419Z,19.33
2023-04-09T16:57:01.954Z,19.37
2023-04-09T16:59:29.395Z,19.31
2023-04-09T17:01:57.095Z,19.31
2023-04-09T17:04:24.706Z,19.22
2023-04-09T17:06:52.179Z,19.23
2023-04-09T17:09:19.693Z,19.12
2023-04-09T17:11:47.233Z,19.12
2023-04-09T17:14:14.915Z,19.11
2023-04-09T17:16:42.809Z,19.05
2023-04-09T17:19:10.801Z,18.93
2023-04-09T17:21:38.189Z,18.93
2023-04-09T17:24:05.989Z,18.90
2023-04-09T17:26:34.188Z,18.81
2023-04-09T17:29:02.127Z,18.75
2023-04-09T17:31:29.750Z,18.76
2023-04-09T17:33:57.291Z,18.72
2023-04-09T17:36:24.869Z,18.65
2023-04-09T17:38:53.021Z,18.67
2023-04-09T17:41:20.677Z,18.63
2023-04-09T17:43:48.197Z,18.53
2023-04-09T17:46:17.023Z,18.51
2023-04-09T17:48:44.807Z,18.44
2023-04-09T17:51:16.631Z,18.48
2023-04-09T17:53:44.184Z,18.39
2023-04-09T17:56:18.128Z,18.35
2023-04-09T17:58:46.581Z,18.42
2023-04-09T18:01:14.341Z,18.34
2023-04-09T18:03:50.992Z,18.21
2023-04-09T18:06:18.687Z,18.13
2023-04-09T18:08:46.169Z,18.14
2023-04-09T18:11:15.585Z,18.05
2023-04-09T18:13:43.113Z,17.98
2023-04-09T18:16:12.172Z,17.92
2023-04-09T18:18:40.052Z,17.89
2023-04-09T18:21:07.760Z,17.81
2023-04-09T18:23:35.345Z,17.73
2023-04-09T18:26:03.230Z,17.67
2023-04-09T18:28:30.779Z,17.63
2023-04-09T18:30:58.893Z,17.58
2023-04-09T18:33:27.165Z,17.50
2023-04-09T18:35:54.743Z,17.48
2023-04-09T18:38:22.778Z,17.44
2023-04-09T18:40:50.384Z,17.37
2023-04-09T18:43:17.921Z,17.37
2023-04-09T18:45:45.444Z,17.23
2023-04-09T18:48:12.862Z,17.18
2023-04-09T18:50:40.341Z,17.18
2023-04-09T18:53:07.745Z,17.12
2023-04-09T18:55:38.454Z,17.14
2023-04-09T18:58:08.873Z,17.18
2023-04-09T19:00:36.671Z,17.12
2023-04-09T19:03:05.553Z,17.15
2023-04-09T19:05:33.581Z,17.05
2023-04-09T19:08:06.942Z,16.99
2023-04-09T19:10:37.968Z,17.00
2023-04-09T19:13:05.502Z,16.97
2023-04-09T19:15:33.000Z,16.84
2023-04-09T19:18:00.528Z,16.82
2023-04-09T19:20:34.491Z,16.77
2023-04-09T19:23:05.081Z,16.68
2023-04-09T19:25:34.227Z,16.63
2023-04-09T19:28:01.776Z,16.69
2023-04-09T19:30:29.272Z,16.61
2023-04-09T19:32:56.698Z,16.48
2023-04-09T19:35:24.196Z,16.47
2023-04-09T19:37:51.684Z,16.50
2023-04-09T19:40:19.360Z,16.48
2023-04-09T19:42:46.873Z,16.48
2023-04-09T19:45:14.372Z,16.51
2023-04-09T19:47:41.873Z,16.48
2023-04-09T19:50:09.980Z,16.36
2023-04-09T19:52:37.858Z,16.28
2023-04-09T19:55:05.977Z,16.22
2023-04-09T19:57:33.577Z,16.27
2023-04-09T20:00:01.078Z,16.27
2023-04-09T20:02:28.675Z,16.16
2023-04-09T20:04:56.521Z,16.09
2023-04-09T20:07:23.940Z,16.07
2023-04-09T20:09:51.399Z,16.03
2023-04-09T20:12:21.024Z,16.01
2023-04-09T20:14:49.550Z,16.05
2023-04-09T20:17:19.923Z,16.08
2023-04-09T20:19:47.703Z,16.01
2023-04-09T20:22:15.182Z,16.00
2023-04-09T20:24:42.971Z,16.00
2023-04-09T20:27:10.351Z,16.11
2023-04-09T20:29:37.913Z,16.08
2023-04-09T20:32:05.690Z,15.99
2023-04-09T20:34:33.185Z,16.02
2023-04-09T20:37:00.647Z,16.06
2023-04-09T20:39:28.111Z,15.99
2023-04-09T20:41:56.706Z,16.05
2023-04-09T20:44:24.667Z,16.00
2023-04-09T20:46:52.198Z,16.03
2023-04-09T20:49:19.943Z,15.98
2023-04-09T20:51:47.740Z,15.91
2023-04-09T20:54:18.082Z,15.84
2023-04-09T20:56:45.621Z,15.86
2023-04-09T20:59:13.106Z,15.81
2023-04-09T21:01:41.010Z,15.72
2023-04-09T21:04:08.945Z,15.76
2023-04-09T21:06:36.694Z,15.76
2023-04-09T21:09:04.280Z,15.57
2023-04-09T21:11:31.813Z,15.57
2023-04-09T21:13:59.276Z,15.48
2023-04-09T21:16:28.593Z,15.40
2023-04-09T21:18:56.553Z,15.41
2023-04-09T21:21:27.392Z,15.39
2023-04-09T21:23:54.957Z,15.36
2023-04-09T21:26:22.360Z,15.33
2023-04-09T21:28:50.742Z,15.33
2023-04-09T21:31:18.368Z,15.24
2023-04-09T21:33:46.112Z,15.15
2023-04-09T21:36:13.660Z,15.15
2023-04-09T21:38:41.437Z,15.17
2023-04-09T21:41:08.916Z,15.11
2023-04-09T21:43:38.487Z,15.00
2023-04-09T21:46:06.173Z,15.02
2023-04-09T21:48:33.719Z,15.00
2023-04-09T21:51:01.232Z,14.93
2023-04-09T21:53:31.076Z,14.88
2023-04-09T21:55:58.408Z,14.81
2023-04-09T21:58:25.846Z,14.74
2023-04-09T22:00:53.337Z,14.64
2023-04-09T22:03:21.896Z,14.56
2023-04-09T22:05:49.515Z,14.50
2023-04-09T22:08:17.063Z,14.45
2023-04-09T22:10:44.565Z,14.45
2023-04-09T22:13:12.099Z,14.41
2023-04-09T22:15:39.687Z,14.40
2023-04-09T22:18:07.145Z,14.35
2023-04-09T22:20:35.902Z,14.41
2023-04-09T22:23:03.655Z,14.37
2023-04-09T22:25:34.937Z,14.28
2023-04-09T22:28:02.558Z,14.36
2023-04-09T22:30:30.133Z,14.33
2023-04-09T22:32:57.833Z,14.36
2023-04-09T22:35:25.400Z,14.25
2023-04-09T22:37:52.986Z,14.27
2023-04-09T22:40:20.438Z,14.26
2023-04-09T22:42:48.328Z,14.25
2023-04-09T22:45:15.749Z,14.19
2023-04-09T22:47:43.312Z,14.21
2023-04-09T22:50:11.556Z,14.18
2023-04-09T22:52:39.005Z,14.13
2023-04-09T22:55:10.067Z,14.13
2023-04-09T22:57:38.480Z,14.17
2023-04-09T23:00:08.551Z,14.14
2023-04-09T23:02:37.155Z,14.16
2023-04-09T23:05:05.162Z,14.16
2023-04-09T23:07:32.722Z,14.17
2023-04-09T23:10:01.680Z,14.15
2023-04-09T23:12:29.164Z,14.09
2023-04-09T23:14:56.675Z,14.06
2023-04-09T23:17:24.658Z,14.05
2023-04-09T23:19:54.772Z,13.98
2023-04-09T23:22:24.325Z,13.92
2023-04-09T23:24:51.765Z,13.95
2023-04-09T23:27:19.514Z,13.78
2023-04-09T23:29:47.038Z,13.72
2023-04-09T23:32:14.467Z,13.79
2023-04-09T23:34:41.838Z,13.75
2023-04-09T23:37:10.318Z,13.80
2023-04-09T23:39:37.669Z,13.82
2023-04-09T23:42:05.835Z,13.78
2023-04-09T23:44:33.296Z,13.72
2023-04-09T23:47:01.515Z,13.68
2023-04-09T23:49:29.901Z,13.61
2023-04-09T23:51:57.515Z,13.62
2023-04-09T23:54:24.903Z,13.65
2023-04-09T23:56:52.472Z,13.65
2023-04-09T23:59:19.897Z,13.68
